SLJE/SJS METAR and TAF weather

Enter ICAO airport designator
Station Type Date Time Source
SLJE METAR 2022/09/29 21:00 UTC NOAA

SLJE 292100Z 18005KT 9999 OVC017 18/13 Q1019


Station Type Date Time Source
SLJE Decoded METAR 2022/09/29 21:00 UTC NOAA

San Jose De Chiquitos, Bolivia (SLJE) 17-48S 060-44W
Sep 29, 2022 - 05:00 PM EDT / 2022.09.29 2100 UTC
Wind: from the S (180 degrees) at 6 MPH (5 KT):0
Visibility: greater than 7 mile(s):0
Sky conditions: overcast
Temperature: 64 F (18 C)
Dew Point: 55 F (13 C)
Relative Humidity: 72%
Pressure (altimeter): 30.09 in. Hg (1019 hPa)
ob: SLJE 292100Z 18005KT 9999 OVC017 18/13 Q1019
cycle: 21

Station Type Date Time Source
SLJE TAF 2009/01/07 11:00 UTC NOAA

METAR SLJE 071100Z 00000KT 9999 SKC 21/18 Q1014

Example: see airport list